sensor_id;sensor_type;location;lat;lon;timestamp;P1;durP1;ratioP1;P2;durP2;ratioP2
13483;SDS011;6814;57.786;12.080;2023-04-06T00:01:43;2.63;;;2.43;;
13483;SDS011;6814;57.786;12.080;2023-04-06T00:04:09;2.23;;;2.03;;
13483;SDS011;6814;57.786;12.080;2023-04-06T00:06:36;2.60;;;1.93;;
13483;SDS011;6814;57.786;12.080;2023-04-06T00:09:02;2.57;;;2.30;;
13483;SDS011;6814;57.786;12.080;2023-04-06T00:11:29;2.43;;;1.87;;
13483;SDS011;6814;57.786;12.080;2023-04-06T00:13:55;4.57;;;2.73;;
13483;SDS011;6814;57.786;12.080;2023-04-06T00:16:21;2.50;;;2.03;;
13483;SDS011;6814;57.786;12.080;2023-04-06T00:18:49;2.67;;;2.30;;
13483;SDS011;6814;57.786;12.080;2023-04-06T00:21:16;2.77;;;2.40;;
13483;SDS011;6814;57.786;12.080;2023-04-06T00:23:42;3.10;;;2.57;;
13483;SDS011;6814;57.786;12.080;2023-04-06T00:26:09;2.90;;;2.37;;
13483;SDS011;6814;57.786;12.080;2023-04-06T00:28:36;3.93;;;3.53;;
13483;SDS011;6814;57.786;12.080;2023-04-06T00:31:02;4.53;;;3.50;;
13483;SDS011;6814;57.786;12.080;2023-04-06T00:33:29;4.33;;;3.40;;
13483;SDS011;6814;57.786;12.080;2023-04-06T00:35:57;5.10;;;3.33;;
13483;SDS011;6814;57.786;12.080;2023-04-06T00:38:23;5.00;;;3.37;;
13483;SDS011;6814;57.786;12.080;2023-04-06T00:40:49;3.83;;;3.50;;
13483;SDS011;6814;57.786;12.080;2023-04-06T00:43:16;5.57;;;3.83;;
13483;SDS011;6814;57.786;12.080;2023-04-06T00:45:42;4.93;;;3.70;;
13483;SDS011;6814;57.786;12.080;2023-04-06T00:48:09;4.50;;;3.73;;
13483;SDS011;6814;57.786;12.080;2023-04-06T00:50:35;3.73;;;3.40;;
13483;SDS011;6814;57.786;12.080;2023-04-06T00:53:03;3.83;;;3.53;;
13483;SDS011;6814;57.786;12.080;2023-04-06T00:55:30;5.10;;;3.60;;
13483;SDS011;6814;57.786;12.080;2023-04-06T00:57:57;3.93;;;3.53;;
13483;SDS011;6814;57.786;12.080;2023-04-06T01:00:24;3.60;;;3.30;;
13483;SDS011;6814;57.786;12.080;2023-04-06T01:02:51;3.97;;;3.20;;
13483;SDS011;6814;57.786;12.080;2023-04-06T01:05:17;4.40;;;3.60;;
13483;SDS011;6814;57.786;12.080;2023-04-06T01:07:45;4.50;;;3.40;;
13483;SDS011;6814;57.786;12.080;2023-04-06T01:10:23;3.70;;;3.40;;
13483;SDS011;6814;57.786;12.080;2023-04-06T01:12:49;3.53;;;3.23;;
13483;SDS011;6814;57.786;12.080;2023-04-06T01:15:16;3.60;;;3.30;;
13483;SDS011;6814;57.786;12.080;2023-04-06T01:17:42;3.63;;;3.33;;
13483;SDS011;6814;57.786;12.080;2023-04-06T01:20:09;3.73;;;3.30;;
13483;SDS011;6814;57.786;12.080;2023-04-06T01:22:37;3.60;;;3.30;;
13483;SDS011;6814;57.786;12.080;2023-04-06T01:25:04;3.37;;;3.07;;
13483;SDS011;6814;57.786;12.080;2023-04-06T01:27:30;5.07;;;3.30;;
13483;SDS011;6814;57.786;12.080;2023-04-06T01:29:57;3.70;;;3.20;;
13483;SDS011;6814;57.786;12.080;2023-04-06T01:32:24;3.63;;;3.33;;
13483;SDS011;6814;57.786;12.080;2023-04-06T01:34:50;4.03;;;3.63;;
13483;SDS011;6814;57.786;12.080;2023-04-06T01:37:17;3.93;;;3.23;;
13483;SDS011;6814;57.786;12.080;2023-04-06T01:39:45;3.03;;;2.70;;
13483;SDS011;6814;57.786;12.080;2023-04-06T01:42:11;3.27;;;3.00;;
13483;SDS011;6814;57.786;12.080;2023-04-06T01:44:37;3.30;;;3.00;;
13483;SDS011;6814;57.786;12.080;2023-04-06T01:47:04;4.57;;;3.53;;
13483;SDS011;6814;57.786;12.080;2023-04-06T01:49:31;3.83;;;3.53;;
13483;SDS011;6814;57.786;12.080;2023-04-06T01:51:57;4.10;;;3.20;;
13483;SDS011;6814;57.786;12.080;2023-04-06T01:54:23;3.53;;;3.30;;
13483;SDS011;6814;57.786;12.080;2023-04-06T01:56:51;3.90;;;3.60;;
13483;SDS011;6814;57.786;12.080;2023-04-06T01:59:18;4.57;;;3.50;;
13483;SDS011;6814;57.786;12.080;2023-04-06T02:01:44;4.10;;;3.60;;
13483;SDS011;6814;57.786;12.080;2023-04-06T02:04:11;4.93;;;3.97;;
13483;SDS011;6814;57.786;12.080;2023-04-06T02:06:39;3.90;;;3.60;;
13483;SDS011;6814;57.786;12.080;2023-04-06T02:09:05;4.80;;;3.60;;
13483;SDS011;6814;57.786;12.080;2023-04-06T02:11:31;3.77;;;3.47;;
13483;SDS011;6814;57.786;12.080;2023-04-06T02:13:59;3.97;;;3.50;;
13483;SDS011;6814;57.786;12.080;2023-04-06T02:16:26;4.13;;;3.73;;
13483;SDS011;6814;57.786;12.080;2023-04-06T02:18:52;4.27;;;3.87;;
13483;SDS011;6814;57.786;12.080;2023-04-06T02:21:19;3.93;;;3.63;;
13483;SDS011;6814;57.786;12.080;2023-04-06T02:23:45;4.60;;;3.90;;
13483;SDS011;6814;57.786;12.080;2023-04-06T02:26:12;5.37;;;3.90;;
13483;SDS011;6814;57.786;12.080;2023-04-06T02:28:38;4.10;;;3.70;;
13483;SDS011;6814;57.786;12.080;2023-04-06T02:31:06;4.00;;;3.70;;
13483;SDS011;6814;57.786;12.080;2023-04-06T02:33:32;3.60;;;3.30;;
13483;SDS011;6814;57.786;12.080;2023-04-06T02:35:59;4.33;;;3.80;;
13483;SDS011;6814;57.786;12.080;2023-04-06T02:38:25;4.20;;;3.83;;
13483;SDS011;6814;57.786;12.080;2023-04-06T02:40:52;4.47;;;3.93;;
13483;SDS011;6814;57.786;12.080;2023-04-06T02:43:18;4.10;;;3.70;;
13483;SDS011;6814;57.786;12.080;2023-04-06T02:45:45;4.37;;;3.97;;
13483;SDS011;6814;57.786;12.080;2023-04-06T02:48:13;4.53;;;4.13;;
13483;SDS011;6814;57.786;12.080;2023-04-06T02:50:39;4.43;;;4.00;;
13483;SDS011;6814;57.786;12.080;2023-04-06T02:53:06;4.57;;;4.17;;
13483;SDS011;6814;57.786;12.080;2023-04-06T02:55:32;4.40;;;4.00;;
13483;SDS011;6814;57.786;12.080;2023-04-06T02:57:59;5.47;;;4.27;;
13483;SDS011;6814;57.786;12.080;2023-04-06T03:00:25;4.97;;;4.10;;
13483;SDS011;6814;57.786;12.080;2023-04-06T03:02:52;5.87;;;4.03;;
13483;SDS011;6814;57.786;12.080;2023-04-06T03:05:20;4.40;;;4.00;;
13483;SDS011;6814;57.786;12.080;2023-04-06T03:07:46;4.70;;;4.30;;
13483;SDS011;6814;57.786;12.080;2023-04-06T03:10:13;5.30;;;4.63;;
13483;SDS011;6814;57.786;12.080;2023-04-06T03:12:39;4.43;;;4.03;;
13483;SDS011;6814;57.786;12.080;2023-04-06T03:15:07;4.93;;;4.53;;
13483;SDS011;6814;57.786;12.080;2023-04-06T03:17:33;7.67;;;5.50;;
13483;SDS011;6814;57.786;12.080;2023-04-06T03:20:00;4.73;;;4.33;;
13483;SDS011;6814;57.786;12.080;2023-04-06T03:22:28;5.40;;;4.70;;
13483;SDS011;6814;57.786;12.080;2023-04-06T03:24:54;5.40;;;4.90;;
13483;SDS011;6814;57.786;12.080;2023-04-06T03:27:21;5.37;;;4.87;;
13483;SDS011;6814;57.786;12.080;2023-04-06T03:29:47;5.50;;;4.97;;
13483;SDS011;6814;57.786;12.080;2023-04-06T03:32:14;6.63;;;5.27;;
13483;SDS011;6814;57.786;12.080;2023-04-06T03:34:40;6.07;;;5.40;;
13483;SDS011;6814;57.786;12.080;2023-04-06T03:37:07;6.23;;;5.07;;
13483;SDS011;6814;57.786;12.080;2023-04-06T03:39:34;6.10;;;5.50;;
13483;SDS011;6814;57.786;12.080;2023-04-06T03:42:01;6.93;;;5.43;;
13483;SDS011;6814;57.786;12.080;2023-04-06T03:44:27;5.70;;;5.20;;
13483;SDS011;6814;57.786;12.080;2023-04-06T03:46:54;6.10;;;5.50;;
13483;SDS011;6814;57.786;12.080;2023-04-06T03:49:20;5.80;;;5.30;;
13483;SDS011;6814;57.786;12.080;2023-04-06T03:51:47;5.90;;;5.30;;
13483;SDS011;6814;57.786;12.080;2023-04-06T03:54:13;6.27;;;5.43;;
13483;SDS011;6814;57.786;12.080;2023-04-06T03:56:41;6.30;;;5.70;;
13483;SDS011;6814;57.786;12.080;2023-04-06T03:59:07;6.10;;;5.50;;
13483;SDS011;6814;57.786;12.080;2023-04-06T04:01:34;7.00;;;6.30;;
13483;SDS011;6814;57.786;12.080;2023-04-06T04:04:00;6.70;;;6.00;;
13483;SDS011;6814;57.786;12.080;2023-04-06T04:06:26;7.03;;;6.20;;
13483;SDS011;6814;57.786;12.080;2023-04-06T04:08:53;7.07;;;6.33;;
13483;SDS011;6814;57.786;12.080;2023-04-06T04:11:19;7.10;;;6.40;;
13483;SDS011;6814;57.786;12.080;2023-04-06T04:13:47;6.50;;;5.90;;
13483;SDS011;6814;57.786;12.080;2023-04-06T04:16:14;7.10;;;5.87;;
13483;SDS011;6814;57.786;12.080;2023-04-06T04:18:40;7.07;;;6.20;;
13483;SDS011;6814;57.786;12.080;2023-04-06T04:21:08;6.73;;;6.13;;
13483;SDS011;6814;57.786;12.080;2023-04-06T04:23:35;6.70;;;5.93;;
13483;SDS011;6814;57.786;12.080;2023-04-06T04:26:01;6.63;;;6.00;;
13483;SDS011;6814;57.786;12.080;2023-04-06T04:28:28;8.47;;;6.40;;
13483;SDS011;6814;57.786;12.080;2023-04-06T04:30:55;6.93;;;6.23;;
13483;SDS011;6814;57.786;12.080;2023-04-06T04:33:22;6.93;;;5.67;;
13483;SDS011;6814;57.786;12.080;2023-04-06T04:35:49;7.43;;;6.50;;
13483;SDS011;6814;57.786;12.080;2023-04-06T04:38:15;6.27;;;5.67;;
13483;SDS011;6814;57.786;12.080;2023-04-06T04:40:42;7.43;;;6.30;;
13483;SDS011;6814;57.786;12.080;2023-04-06T04:43:08;7.00;;;6.33;;
13483;SDS011;6814;57.786;12.080;2023-04-06T04:45:35;7.57;;;6.70;;
13483;SDS011;6814;57.786;12.080;2023-04-06T04:48:03;6.60;;;6.00;;
13483;SDS011;6814;57.786;12.080;2023-04-06T04:50:29;6.87;;;6.23;;
13483;SDS011;6814;57.786;12.080;2023-04-06T04:52:56;6.83;;;5.63;;
13483;SDS011;6814;57.786;12.080;2023-04-06T04:55:22;7.47;;;5.93;;
13483;SDS011;6814;57.786;12.080;2023-04-06T04:57:49;6.93;;;6.13;;
13483;SDS011;6814;57.786;12.080;2023-04-06T05:00:15;7.13;;;6.03;;
13483;SDS011;6814;57.786;12.080;2023-04-06T05:02:42;6.63;;;5.93;;
13483;SDS011;6814;57.786;12.080;2023-04-06T05:05:09;6.47;;;5.77;;
13483;SDS011;6814;57.786;12.080;2023-04-06T05:07:36;6.13;;;5.53;;
13483;SDS011;6814;57.786;12.080;2023-04-06T05:10:03;6.33;;;5.73;;
13483;SDS011;6814;57.786;12.080;2023-04-06T05:12:29;6.10;;;5.50;;
13483;SDS011;6814;57.786;12.080;2023-04-06T05:14:56;6.87;;;5.50;;
13483;SDS011;6814;57.786;12.080;2023-04-06T05:17:22;7.47;;;6.00;;
13483;SDS011;6814;57.786;12.080;2023-04-06T05:19:48;5.77;;;5.00;;
13483;SDS011;6814;57.786;12.080;2023-04-06T05:22:16;5.97;;;5.37;;
13483;SDS011;6814;57.786;12.080;2023-04-06T05:24:43;5.90;;;5.37;;
13483;SDS011;6814;57.786;12.080;2023-04-06T05:27:09;5.60;;;5.10;;
13483;SDS011;6814;57.786;12.080;2023-04-06T05:29:36;6.27;;;5.67;;
13483;SDS011;6814;57.786;12.080;2023-04-06T05:32:02;6.27;;;5.30;;
13483;SDS011;6814;57.786;12.080;2023-04-06T05:34:29;6.00;;;5.40;;
13483;SDS011;6814;57.786;12.080;2023-04-06T05:36:56;5.47;;;4.97;;
13483;SDS011;6814;57.786;12.080;2023-04-06T05:39:23;4.87;;;4.43;;
13483;SDS011;6814;57.786;12.080;2023-04-06T05:41:50;5.80;;;4.70;;
13483;SDS011;6814;57.786;12.080;2023-04-06T05:44:17;5.00;;;4.60;;
13483;SDS011;6814;57.786;12.080;2023-04-06T05:46:43;4.83;;;4.43;;
13483;SDS011;6814;57.786;12.080;2023-04-06T05:49:10;4.93;;;4.53;;
13483;SDS011;6814;57.786;12.080;2023-04-06T05:51:36;4.97;;;4.57;;
13483;SDS011;6814;57.786;12.080;2023-04-06T05:54:02;5.43;;;4.73;;
13483;SDS011;6814;57.786;12.080;2023-04-06T05:56:31;4.93;;;4.53;;
13483;SDS011;6814;57.786;12.080;2023-04-06T05:58:57;5.43;;;4.40;;
13483;SDS011;6814;57.786;12.080;2023-04-06T06:01:24;4.73;;;4.20;;
13483;SDS011;6814;57.786;12.080;2023-04-06T06:03:51;4.77;;;4.37;;
13483;SDS011;6814;57.786;12.080;2023-04-06T06:06:17;4.70;;;4.17;;
13483;SDS011;6814;57.786;12.080;2023-04-06T06:08:43;4.93;;;3.90;;
13483;SDS011;6814;57.786;12.080;2023-04-06T06:11:10;4.20;;;3.80;;
13483;SDS011;6814;57.786;12.080;2023-04-06T06:13:39;3.60;;;2.90;;
13483;SDS011;6814;57.786;12.080;2023-04-06T06:16:05;3.20;;;3.00;;
13483;SDS011;6814;57.786;12.080;2023-04-06T06:18:31;4.30;;;2.93;;
13483;SDS011;6814;57.786;12.080;2023-04-06T06:20:58;3.83;;;3.03;;
13483;SDS011;6814;57.786;12.080;2023-04-06T06:23:25;3.20;;;3.00;;
13483;SDS011;6814;57.786;12.080;2023-04-06T06:25:51;3.73;;;3.10;;
13483;SDS011;6814;57.786;12.080;2023-04-06T06:28:18;2.63;;;2.43;;
13483;SDS011;6814;57.786;12.080;2023-04-06T06:30:46;3.20;;;2.93;;
13483;SDS011;6814;57.786;12.080;2023-04-06T06:33:13;4.40;;;2.73;;
13483;SDS011;6814;57.786;12.080;2023-04-06T06:35:39;3.43;;;3.07;;
13483;SDS011;6814;57.786;12.080;2023-04-06T06:38:06;3.00;;;2.70;;
13483;SDS011;6814;57.786;12.080;2023-04-06T06:40:32;3.40;;;3.10;;
13483;SDS011;6814;57.786;12.080;2023-04-06T06:42:59;3.70;;;3.40;;
13483;SDS011;6814;57.786;12.080;2023-04-06T06:45:25;3.87;;;3.23;;
13483;SDS011;6814;57.786;12.080;2023-04-06T06:47:53;3.77;;;3.37;;
13483;SDS011;6814;57.786;12.080;2023-04-06T06:50:20;3.00;;;2.70;;
13483;SDS011;6814;57.786;12.080;2023-04-06T06:52:46;2.80;;;2.60;;
13483;SDS011;6814;57.786;12.080;2023-04-06T06:55:13;3.13;;;2.63;;
13483;SDS011;6814;57.786;12.080;2023-04-06T06:57:40;3.07;;;2.77;;
13483;SDS011;6814;57.786;12.080;2023-04-06T07:00:07;3.27;;;2.80;;
13483;SDS011;6814;57.786;12.080;2023-04-06T07:02:35;2.80;;;2.60;;
13483;SDS011;6814;57.786;12.080;2023-04-06T07:05:03;2.93;;;2.30;;
13483;SDS011;6814;57.786;12.080;2023-04-06T07:07:31;2.93;;;2.47;;
13483;SDS011;6814;57.786;12.080;2023-04-06T07:09:57;2.83;;;2.57;;
13483;SDS011;6814;57.786;12.080;2023-04-06T07:12:24;2.70;;;2.50;;
13483;SDS011;6814;57.786;12.080;2023-04-06T07:14:50;3.07;;;2.50;;
13483;SDS011;6814;57.786;12.080;2023-04-06T07:17:17;2.80;;;2.60;;
13483;SDS011;6814;57.786;12.080;2023-04-06T07:19:43;2.60;;;2.40;;
13483;SDS011;6814;57.786;12.080;2023-04-06T07:22:11;2.67;;;2.47;;
13483;SDS011;6814;57.786;12.080;2023-04-06T07:24:37;2.67;;;2.43;;
13483;SDS011;6814;57.786;12.080;2023-04-06T07:27:04;2.07;;;1.97;;
13483;SDS011;6814;57.786;12.080;2023-04-06T07:29:31;2.70;;;2.07;;
13483;SDS011;6814;57.786;12.080;2023-04-06T07:31:57;2.13;;;2.00;;
13483;SDS011;6814;57.786;12.080;2023-04-06T07:34:23;2.30;;;2.10;;
13483;SDS011;6814;57.786;12.080;2023-04-06T07:36:50;1.80;;;1.70;;
13483;SDS011;6814;57.786;12.080;2023-04-06T07:39:19;1.83;;;1.57;;
13483;SDS011;6814;57.786;12.080;2023-04-06T07:41:45;1.90;;;1.80;;
13483;SDS011;6814;57.786;12.080;2023-04-06T07:44:12;1.73;;;1.50;;
13483;SDS011;6814;57.786;12.080;2023-04-06T07:46:38;1.60;;;1.50;;
13483;SDS011;6814;57.786;12.080;2023-04-06T07:49:05;1.73;;;1.63;;
13483;SDS011;6814;57.786;12.080;2023-04-06T07:51:31;2.13;;;1.80;;
13483;SDS011;6814;57.786;12.080;2023-04-06T07:53:58;2.00;;;1.80;;
13483;SDS011;6814;57.786;12.080;2023-04-06T07:56:26;1.90;;;1.80;;
13483;SDS011;6814;57.786;12.080;2023-04-06T07:58:52;2.07;;;1.90;;
13483;SDS011;6814;57.786;12.080;2023-04-06T08:01:20;2.30;;;1.60;;
13483;SDS011;6814;57.786;12.080;2023-04-06T08:03:47;1.83;;;1.40;;
13483;SDS011;6814;57.786;12.080;2023-04-06T08:06:13;1.27;;;1.23;;
13483;SDS011;6814;57.786;12.080;2023-04-06T08:08:40;2.20;;;1.93;;
13483;SDS011;6814;57.786;12.080;2023-04-06T08:11:06;1.60;;;1.50;;
13483;SDS011;6814;57.786;12.080;2023-04-06T08:13:34;1.63;;;1.53;;
13483;SDS011;6814;57.786;12.080;2023-04-06T08:16:01;1.40;;;1.40;;
13483;SDS011;6814;57.786;12.080;2023-04-06T08:18:27;1.60;;;1.50;;
13483;SDS011;6814;57.786;12.080;2023-04-06T08:20:55;2.40;;;1.80;;
13483;SDS011;6814;57.786;12.080;2023-04-06T08:23:21;2.20;;;1.40;;
13483;SDS011;6814;57.786;12.080;2023-04-06T08:25:48;1.40;;;1.30;;
13483;SDS011;6814;57.786;12.080;2023-04-06T08:28:14;1.87;;;1.57;;
13483;SDS011;6814;57.786;12.080;2023-04-06T08:30:42;1.20;;;1.10;;
13483;SDS011;6814;57.786;12.080;2023-04-06T08:33:09;1.57;;;1.37;;
13483;SDS011;6814;57.786;12.080;2023-04-06T08:35:35;2.10;;;1.10;;
13483;SDS011;6814;57.786;12.080;2023-04-06T08:38:02;1.30;;;1.20;;
13483;SDS011;6814;57.786;12.080;2023-04-06T08:40:28;2.50;;;1.40;;
13483;SDS011;6814;57.786;12.080;2023-04-06T08:42:56;1.53;;;1.30;;
13483;SDS011;6814;57.786;12.080;2023-04-06T08:45:22;1.20;;;1.20;;
13483;SDS011;6814;57.786;12.080;2023-04-06T08:47:50;1.40;;;1.30;;
13483;SDS011;6814;57.786;12.080;2023-04-06T08:50:17;1.23;;;1.13;;
13483;SDS011;6814;57.786;12.080;2023-04-06T08:52:44;1.27;;;1.27;;
13483;SDS011;6814;57.786;12.080;2023-04-06T08:55:12;1.30;;;1.30;;
13483;SDS011;6814;57.786;12.080;2023-04-06T08:57:39;1.50;;;1.40;;
13483;SDS011;6814;57.786;12.080;2023-04-06T09:00:06;1.87;;;1.77;;
13483;SDS011;6814;57.786;12.080;2023-04-06T09:02:36;1.60;;;1.50;;
13483;SDS011;6814;57.786;12.080;2023-04-06T09:05:05;1.60;;;1.50;;
13483;SDS011;6814;57.786;12.080;2023-04-06T09:07:32;1.87;;;1.77;;
13483;SDS011;6814;57.786;12.080;2023-04-06T09:09:58;2.97;;;1.90;;
13483;SDS011;6814;57.786;12.080;2023-04-06T09:12:25;1.97;;;1.87;;
13483;SDS011;6814;57.786;12.080;2023-04-06T09:14:52;2.10;;;2.00;;
13483;SDS011;6814;57.786;12.080;2023-04-06T09:17:20;2.67;;;1.93;;
13483;SDS011;6814;57.786;12.080;2023-04-06T09:19:46;1.90;;;1.80;;
13483;SDS011;6814;57.786;12.080;2023-04-06T09:22:14;2.07;;;1.87;;
13483;SDS011;6814;57.786;12.080;2023-04-06T09:24:41;2.30;;;1.70;;
13483;SDS011;6814;57.786;12.080;2023-04-06T09:27:08;2.10;;;1.90;;
13483;SDS011;6814;57.786;12.080;2023-04-06T09:29:34;2.50;;;2.00;;
13483;SDS011;6814;57.786;12.080;2023-04-06T09:32:02;2.67;;;2.10;;
13483;SDS011;6814;57.786;12.080;2023-04-06T09:34:28;2.73;;;2.13;;
13483;SDS011;6814;57.786;12.080;2023-04-06T09:36:55;2.27;;;2.10;;
13483;SDS011;6814;57.786;12.080;2023-04-06T09:39:23;1.93;;;1.83;;
13483;SDS011;6814;57.786;12.080;2023-04-06T09:41:53;2.33;;;2.10;;
13483;SDS011;6814;57.786;12.080;2023-04-06T09:44:20;2.40;;;2.20;;
13483;SDS011;6814;57.786;12.080;2023-04-06T09:46:49;2.30;;;2.10;;
13483;SDS011;6814;57.786;12.080;2023-04-06T09:49:15;3.63;;;2.40;;
13483;SDS011;6814;57.786;12.080;2023-04-06T09:51:46;2.53;;;2.30;;
13483;SDS011;6814;57.786;12.080;2023-04-06T09:54:15;3.00;;;2.70;;
13483;SDS011;6814;57.786;12.080;2023-04-06T09:56:45;4.67;;;2.80;;
13483;SDS011;6814;57.786;12.080;2023-04-06T09:59:13;3.40;;;2.70;;
13483;SDS011;6814;57.786;12.080;2023-04-06T10:01:39;3.47;;;2.80;;
13483;SDS011;6814;57.786;12.080;2023-04-06T10:04:09;2.93;;;2.73;;
13483;SDS011;6814;57.786;12.080;2023-04-06T10:06:39;2.90;;;2.60;;
13483;SDS011;6814;57.786;12.080;2023-04-06T10:09:06;3.53;;;3.23;;
13483;SDS011;6814;57.786;12.080;2023-04-06T10:11:34;3.87;;;3.33;;
13483;SDS011;6814;57.786;12.080;2023-04-06T10:14:02;4.13;;;3.50;;
13483;SDS011;6814;57.786;12.080;2023-04-06T10:16:29;3.50;;;3.10;;
13483;SDS011;6814;57.786;12.080;2023-04-06T10:18:56;4.30;;;3.70;;
13483;SDS011;6814;57.786;12.080;2023-04-06T10:21:24;4.23;;;3.87;;
13483;SDS011;6814;57.786;12.080;2023-04-06T10:23:53;5.43;;;3.60;;
13483;SDS011;6814;57.786;12.080;2023-04-06T10:26:24;4.67;;;4.13;;
13483;SDS011;6814;57.786;12.080;2023-04-06T10:28:51;5.13;;;4.67;;
13483;SDS011;6814;57.786;12.080;2023-04-06T10:31:27;4.87;;;4.37;;
13483;SDS011;6814;57.786;12.080;2023-04-06T10:33:57;5.27;;;4.57;;
13483;SDS011;6814;57.786;12.080;2023-04-06T10:36:27;6.20;;;4.83;;
13483;SDS011;6814;57.786;12.080;2023-04-06T10:38:55;7.53;;;5.57;;
13483;SDS011;6814;57.786;12.080;2023-04-06T10:41:22;8.00;;;5.23;;
13483;SDS011;6814;57.786;12.080;2023-04-06T10:43:54;5.83;;;5.03;;
13483;SDS011;6814;57.786;12.080;2023-04-06T10:46:24;6.70;;;5.97;;
13483;SDS011;6814;57.786;12.080;2023-04-06T10:48:52;7.07;;;6.00;;
13483;SDS011;6814;57.786;12.080;2023-04-06T10:51:19;7.67;;;6.30;;
13483;SDS011;6814;57.786;12.080;2023-04-06T10:53:46;6.93;;;6.00;;
13483;SDS011;6814;57.786;12.080;2023-04-06T10:56:14;8.53;;;6.30;;
13483;SDS011;6814;57.786;12.080;2023-04-06T10:58:43;7.00;;;6.30;;
13483;SDS011;6814;57.786;12.080;2023-04-06T11:01:10;8.80;;;6.90;;
13483;SDS011;6814;57.786;12.080;2023-04-06T11:03:42;7.27;;;6.17;;
13483;SDS011;6814;57.786;12.080;2023-04-06T11:06:10;6.93;;;6.33;;
13483;SDS011;6814;57.786;12.080;2023-04-06T11:08:36;7.60;;;6.50;;
13483;SDS011;6814;57.786;12.080;2023-04-06T11:11:05;6.43;;;5.80;;
13483;SDS011;6814;57.786;12.080;2023-04-06T11:13:41;7.07;;;6.13;;
13483;SDS011;6814;57.786;12.080;2023-04-06T11:16:12;6.20;;;5.70;;
13483;SDS011;6814;57.786;12.080;2023-04-06T11:18:46;6.23;;;5.63;;
13483;SDS011;6814;57.786;12.080;2023-04-06T11:21:14;6.60;;;6.00;;
13483;SDS011;6814;57.786;12.080;2023-04-06T11:23:40;8.70;;;5.90;;
13483;SDS011;6814;57.786;12.080;2023-04-06T11:26:09;7.70;;;6.17;;
13483;SDS011;6814;57.786;12.080;2023-04-06T11:28:36;7.80;;;5.90;;
13483;SDS011;6814;57.786;12.080;2023-04-06T11:31:02;8.80;;;6.17;;
13483;SDS011;6814;57.786;12.080;2023-04-06T11:33:29;6.50;;;5.90;;
13483;SDS011;6814;57.786;12.080;2023-04-06T11:36:01;7.07;;;5.70;;
13483;SDS011;6814;57.786;12.080;2023-04-06T11:38:28;6.73;;;6.10;;
13483;SDS011;6814;57.786;12.080;2023-04-06T11:40:55;6.67;;;5.50;;
13483;SDS011;6814;57.786;12.080;2023-04-06T11:43:25;7.80;;;5.23;;
13483;SDS011;6814;57.786;12.080;2023-04-06T11:45:52;7.23;;;5.97;;
13483;SDS011;6814;57.786;12.080;2023-04-06T11:48:25;5.93;;;5.33;;
13483;SDS011;6814;57.786;12.080;2023-04-06T11:50:54;6.00;;;5.40;;
13483;SDS011;6814;57.786;12.080;2023-04-06T11:53:21;6.93;;;5.70;;
13483;SDS011;6814;57.786;12.080;2023-04-06T11:55:49;7.03;;;5.43;;
13483;SDS011;6814;57.786;12.080;2023-04-06T11:58:16;5.83;;;5.10;;
13483;SDS011;6814;57.786;12.080;2023-04-06T12:00:43;5.77;;;4.43;;
13483;SDS011;6814;57.786;12.080;2023-04-06T12:03:10;5.23;;;4.60;;
13483;SDS011;6814;57.786;12.080;2023-04-06T12:05:36;6.43;;;4.53;;
13483;SDS011;6814;57.786;12.080;2023-04-06T12:08:03;5.50;;;3.97;;
13483;SDS011;6814;57.786;12.080;2023-04-06T12:10:30;5.57;;;4.40;;
13483;SDS011;6814;57.786;12.080;2023-04-06T12:12:58;4.87;;;4.17;;
13483;SDS011;6814;57.786;12.080;2023-04-06T12:15:24;5.87;;;4.17;;
13483;SDS011;6814;57.786;12.080;2023-04-06T12:17:50;6.37;;;3.97;;
13483;SDS011;6814;57.786;12.080;2023-04-06T12:20:17;6.33;;;4.10;;
13483;SDS011;6814;57.786;12.080;2023-04-06T12:22:43;6.13;;;4.07;;
13483;SDS011;6814;57.786;12.080;2023-04-06T12:25:10;5.47;;;4.03;;
13483;SDS011;6814;57.786;12.080;2023-04-06T12:27:37;4.27;;;3.37;;
13483;SDS011;6814;57.786;12.080;2023-04-06T12:30:05;4.73;;;3.77;;
13483;SDS011;6814;57.786;12.080;2023-04-06T12:32:32;4.00;;;3.53;;
13483;SDS011;6814;57.786;12.080;2023-04-06T12:34:59;4.40;;;3.20;;
13483;SDS011;6814;57.786;12.080;2023-04-06T12:37:25;4.27;;;3.50;;
13483;SDS011;6814;57.786;12.080;2023-04-06T12:39:52;4.80;;;3.63;;
13483;SDS011;6814;57.786;12.080;2023-04-06T12:42:19;2.90;;;2.57;;
13483;SDS011;6814;57.786;12.080;2023-04-06T12:44:45;4.80;;;3.10;;
13483;SDS011;6814;57.786;12.080;2023-04-06T12:47:13;4.03;;;2.80;;
13483;SDS011;6814;57.786;12.080;2023-04-06T12:49:41;3.33;;;2.50;;
13483;SDS011;6814;57.786;12.080;2023-04-06T12:52:07;3.97;;;2.43;;
13483;SDS011;6814;57.786;12.080;2023-04-06T12:54:34;3.47;;;2.30;;
13483;SDS011;6814;57.786;12.080;2023-04-06T12:57:01;2.70;;;2.50;;
13483;SDS011;6814;57.786;12.080;2023-04-06T12:59:27;3.07;;;2.77;;
13483;SDS011;6814;57.786;12.080;2023-04-06T13:01:59;3.60;;;2.50;;
13483;SDS011;6814;57.786;12.080;2023-04-06T13:04:27;2.93;;;2.57;;
13483;SDS011;6814;57.786;12.080;2023-04-06T13:06:53;5.80;;;2.97;;
13483;SDS011;6814;57.786;12.080;2023-04-06T13:09:20;4.83;;;3.10;;
13483;SDS011;6814;57.786;12.080;2023-04-06T13:11:47;3.67;;;2.83;;
13483;SDS011;6814;57.786;12.080;2023-04-06T13:14:13;2.77;;;2.53;;
13483;SDS011;6814;57.786;12.080;2023-04-06T13:16:41;4.63;;;2.50;;
13483;SDS011;6814;57.786;12.080;2023-04-06T13:19:07;2.17;;;2.07;;
13483;SDS011;6814;57.786;12.080;2023-04-06T13:21:37;2.20;;;1.97;;
13483;SDS011;6814;57.786;12.080;2023-04-06T13:24:03;2.43;;;1.87;;
13483;SDS011;6814;57.786;12.080;2023-04-06T13:26:31;1.87;;;1.60;;
13483;SDS011;6814;57.786;12.080;2023-04-06T13:28:59;1.77;;;1.50;;
13483;SDS011;6814;57.786;12.080;2023-04-06T13:31:25;3.57;;;1.70;;
13483;SDS011;6814;57.786;12.080;2023-04-06T13:33:52;2.33;;;1.40;;
13483;SDS011;6814;57.786;12.080;2023-04-06T13:36:19;1.80;;;1.70;;
13483;SDS011;6814;57.786;12.080;2023-04-06T13:38:47;1.67;;;1.20;;
13483;SDS011;6814;57.786;12.080;2023-04-06T13:41:17;1.53;;;1.43;;
13483;SDS011;6814;57.786;12.080;2023-04-06T13:43:45;1.93;;;1.50;;
13483;SDS011;6814;57.786;12.080;2023-04-06T13:46:12;2.97;;;1.93;;
13483;SDS011;6814;57.786;12.080;2023-04-06T13:48:38;2.57;;;1.73;;
13483;SDS011;6814;57.786;12.080;2023-04-06T13:51:08;2.23;;;1.30;;
13483;SDS011;6814;57.786;12.080;2023-04-06T13:53:35;2.47;;;1.40;;
13483;SDS011;6814;57.786;12.080;2023-04-06T13:56:03;1.90;;;1.70;;
13483;SDS011;6814;57.786;12.080;2023-04-06T13:58:29;1.53;;;1.20;;
13483;SDS011;6814;57.786;12.080;2023-04-06T14:01:01;2.90;;;1.60;;
13483;SDS011;6814;57.786;12.080;2023-04-06T14:03:27;3.33;;;1.70;;
13483;SDS011;6814;57.786;12.080;2023-04-06T14:05:53;1.47;;;1.37;;
13483;SDS011;6814;57.786;12.080;2023-04-06T14:08:20;1.90;;;1.27;;
13483;SDS011;6814;57.786;12.080;2023-04-06T14:10:46;1.83;;;1.67;;
13483;SDS011;6814;57.786;12.080;2023-04-06T14:13:14;1.97;;;1.77;;
13483;SDS011;6814;57.786;12.080;2023-04-06T14:15:42;1.70;;;1.60;;
13483;SDS011;6814;57.786;12.080;2023-04-06T14:18:08;1.57;;;1.47;;
13483;SDS011;6814;57.786;12.080;2023-04-06T14:20:34;4.33;;;1.67;;
13483;SDS011;6814;57.786;12.080;2023-04-06T14:23:01;3.07;;;1.40;;
13483;SDS011;6814;57.786;12.080;2023-04-06T14:25:27;2.13;;;1.53;;
13483;SDS011;6814;57.786;12.080;2023-04-06T14:27:56;1.43;;;1.33;;
13483;SDS011;6814;57.786;12.080;2023-04-06T14:30:25;2.43;;;1.43;;
13483;SDS011;6814;57.786;12.080;2023-04-06T14:32:52;2.10;;;1.30;;
13483;SDS011;6814;57.786;12.080;2023-04-06T14:35:19;1.33;;;1.23;;
13483;SDS011;6814;57.786;12.080;2023-04-06T14:37:46;2.30;;;1.03;;
13483;SDS011;6814;57.786;12.080;2023-04-06T14:40:12;1.40;;;1.30;;
13483;SDS011;6814;57.786;12.080;2023-04-06T14:42:39;3.33;;;1.63;;
13483;SDS011;6814;57.786;12.080;2023-04-06T14:45:06;2.63;;;1.30;;
13483;SDS011;6814;57.786;12.080;2023-04-06T14:47:34;2.03;;;1.57;;